Portada
METAR-TAF:

METAR-TAF

Aeroports :

Aeroport Internacional de Tòquio

Tòquio Haneda, Japó

latitud: 35-33N, longitud: 139-47E, altitud: 5 m

Observació

L'informe es va fer fa 31 minuts, a les 19:30 UTC
Vent 13 kt del Nord
Temperatura 16°C
Humitat 72%
Pressió 1025 hPa
Visibilitat 10 km o més
Escasses núvols a una alçada de 3000 ft

METAR: RJTT 201930Z 36013KT 9999 FEW030 16/11 Q1025 NOSIG RMK 1CU030 A3028

Hora: 05:01 (20:01 UTC)

Pronòstic

L'informe es va fer fa 2 hores i 56 minuts, a les 17:05 UTC
Pronòstic vàlid del 20 a les 18 UTC al 22 a les 00 UTC
Vent 13 kt del Nord
Visibilitat 10 km o més
Escasses núvols a una alçada de 3000 ft

TAF: RJTT 201705Z 2018/2200 01013KT 9999 FEW030

Observacions i pronòstics meteorològics de més de 4000 aeroports (METAR i TAF).

Les estacions disponibles són els punts grocs i vermells al mapa.

Posi el ratolí al punt desitjat per veure el nom de l'estació.

Feu clic per veure les observacions i els pronòstics meteorològics.

Per canviar el mapa: feu clic els botons verds amb una creu de color negre per apropar; al botó verd amb un guió per allunyar la imatge; o en les fletxes verdes per a mapes adjacents.


METAR-TAF: